»·PEaware :: N129WS KPDX-KGEG

N129WS :: KPDX-KGEG

FLIGHT INFORMATION

Flight Status: Arrived
Operator: Privately registered:
United States
More flights under this callsign
Pilot: Michael M. (12217)
Aircraft: EXTRA 500
(E500)
More flights by this aircraft type
Origin: KPDX Portland Intl
United States
Destination: KGEG Spokane Intl
United States
More flights between these airports :: More routes between these airports
Route: +DMBOR V468 YKM V448 MWH ZOOMR1
File this flight plan on PilotEdge
Remarks:
Altitude:
(Current/Filed)
13,000ft
Speed:
(Current/Filed)
220kts
Departed: 12-May-17 12:36 PM
Arrived: 12-May-17 01:57 PM
Distance/Time
Traveled:
242nm/1:21
Distance/Time
To Go:
Arrived

Flight Plot

Page will automatically refresh every two minutes.

Flight plan parsing failed; only flown route is shown


Map Options




Map Legend


Flown Route
Filed Route
Departure Airport
Arrival Airport
Navaid (VOR, NDB)
Fix

Horizontal Profiles

Position Reports

Time Latitude Longitude Heading Altitude Ground
Speed
12-May-17 12:07 45.584242 -122.576171 167 19ft 0kts
12-May-17 12:08 45.584242 -122.576171 167 19ft 0kts
12-May-17 12:09 45.584242 -122.576171 167 19ft 0kts
12-May-17 12:10 45.584242 -122.576171 167 19ft 0kts
12-May-17 12:11 45.584242 -122.576171 167 19ft 0kts
12-May-17 12:12 45.584242 -122.576171 167 19ft 0kts
12-May-17 12:13 45.584242 -122.576171 167 19ft 0kts
12-May-17 12:14 45.584242 -122.576171 167 19ft 0kts
12-May-17 12:15 45.584242 -122.576171 167 19ft 0kts
12-May-17 12:16 45.584242 -122.576171 167 19ft 0kts
12-May-17 12:17 45.584242 -122.576171 167 19ft 0kts
12-May-17 12:18 45.584242 -122.576171 167 19ft 0kts
12-May-17 12:19 45.584242 -122.576171 167 19ft 0kts
12-May-17 12:20 45.584242 -122.576171 167 19ft 0kts
12-May-17 12:21 45.584242 -122.576171 167 19ft 0kts
12-May-17 12:22 45.584242 -122.576171 167 19ft 0kts
12-May-17 12:23 45.584242 -122.576171 167 19ft 0kts
12-May-17 12:24 45.584242 -122.576171 167 19ft 0kts
12-May-17 12:25 45.584517 -122.576237 323 19ft 1kts
12-May-17 12:26 45.585791 -122.577107 300 19ft 4kts
12-May-17 12:27 45.586373 -122.578477 330 19ft 5kts
12-May-17 12:28 45.587580 -122.580329 302 19ft 8kts
12-May-17 12:29 45.589159 -122.584378 298 19ft 12kts
12-May-17 12:30 45.589100 -122.586397 119 19ft 6kts
12-May-17 12:31 45.588291 -122.584469 119 19ft 9kts
12-May-17 12:32 45.589282 -122.587106 302 19ft 19kts
12-May-17 12:33 45.591977 -122.593765 297 20ft 17kts
12-May-17 12:34 45.593901 -122.598790 297 23ft 0kts
12-May-17 12:35 45.593901 -122.598790 297 23ft 0kts
12-May-17 12:36 45.593901 -122.598790 297 23ft 0kts
12-May-17 12:37 45.593943 -122.600399 225 23ft 17kts
12-May-17 12:38 45.570542 -122.621350 169 691ft 168kts
12-May-17 12:39 45.530789 -122.620925 224 2146ft 170kts
12-May-17 12:40 45.522665 -122.678255 326 3324ft 208kts
12-May-17 12:41 45.571481 -122.668965 48 4998ft 194kts
12-May-17 12:42 45.604338 -122.601182 51 6568ft 244kts
12-May-17 12:43 45.655140 -122.526900 41 7678ft 282kts
12-May-17 12:44 45.707267 -122.461417 37 10841ft 251kts
12-May-17 12:45 45.761529 -122.396349 37 12435ft 250kts
12-May-17 12:46 45.795757 -122.319571 77 12387ft 237kts
12-May-17 12:47 45.810848 -122.243862 78 12367ft 233kts
12-May-17 12:48 45.829463 -122.145220 79 12981ft 220kts
12-May-17 12:49 45.845613 -122.057474 79 12983ft 234kts
12-May-17 12:50 45.862312 -121.966058 79 12966ft 241kts
12-May-17 12:51 45.879248 -121.872702 79 12956ft 243kts
12-May-17 12:52 45.896232 -121.778508 79 13000ft 242kts
12-May-17 12:53 45.913000 -121.684814 79 13003ft 244kts
12-May-17 12:54 45.927015 -121.606155 79 13003ft 245kts
12-May-17 12:55 45.946617 -121.495523 79 13004ft 245kts
12-May-17 12:56 45.960327 -121.418701 81 13003ft 225kts
12-May-17 12:57 45.983242 -121.344003 53 12999ft 211kts
12-May-17 12:58 46.022410 -121.282853 53 13001ft 207kts
12-May-17 12:59 46.067830 -121.213314 52 13001ft 206kts
12-May-17 13:00 46.100435 -121.163696 52 12935ft 208kts
12-May-17 13:01 46.139004 -121.105093 52 12917ft 206kts
12-May-17 13:02 46.178251 -121.045430 52 12918ft 205kts
12-May-17 13:03 46.215998 -120.987949 52 12918ft 205kts
12-May-17 13:04 46.254225 -120.929548 52 12917ft 205kts
12-May-17 13:05 46.293233 -120.869956 52 12917ft 204kts
12-May-17 13:06 46.332119 -120.810393 52 12917ft 204kts
12-May-17 13:07 46.371039 -120.750639 52 12917ft 204kts
12-May-17 13:08 46.410050 -120.690598 52 12917ft 204kts
12-May-17 13:09 46.448807 -120.630830 52 12963ft 202kts
12-May-17 13:10 46.487252 -120.571371 52 12958ft 204kts
12-May-17 13:11 46.526163 -120.511077 52 12953ft 205kts
12-May-17 13:12 46.564575 -120.451432 52 12953ft 205kts
12-May-17 13:13 46.601168 -120.388878 55 12953ft 204kts
12-May-17 13:14 46.637235 -120.326598 56 12957ft 204kts
12-May-17 13:15 46.667326 -120.274484 56 12955ft 204kts
12-May-17 13:16 46.703809 -120.211185 56 12957ft 204kts
12-May-17 13:17 46.740280 -120.147703 56 12956ft 204kts
12-May-17 13:18 46.776583 -120.084351 56 12956ft 204kts
12-May-17 13:19 46.808219 -120.029021 56 12968ft 204kts
12-May-17 13:20 46.843264 -119.967594 56 12983ft 204kts
12-May-17 13:21 46.879561 -119.903823 56 12983ft 204kts
12-May-17 13:22 46.915742 -119.840096 56 12983ft 204kts
12-May-17 13:23 46.951837 -119.776368 56 12983ft 204kts
12-May-17 13:24 46.987997 -119.712380 56 12983ft 204kts
12-May-17 13:25 47.024086 -119.648364 56 12982ft 204kts
12-May-17 13:26 47.060085 -119.584360 56 12982ft 205kts
12-May-17 13:27 47.096211 -119.519917 56 12982ft 205kts
12-May-17 13:28 47.131356 -119.457194 56 12979ft 204kts
12-May-17 13:29 47.167276 -119.392907 56 12979ft 204kts
12-May-17 13:30 47.202478 -119.329740 57 12982ft 204kts
12-May-17 13:31 47.223759 -119.255216 75 12983ft 198kts
12-May-17 13:32 47.242361 -119.178788 75 12982ft 198kts
12-May-17 13:33 47.260667 -119.102270 76 12982ft 198kts
12-May-17 13:34 47.278814 -119.025492 76 12982ft 199kts
12-May-17 13:35 47.296901 -118.948713 76 12982ft 199kts
12-May-17 13:36 47.314947 -118.871923 76 12981ft 199kts
12-May-17 13:37 47.332949 -118.794918 76 12981ft 199kts
12-May-17 13:38 47.350858 -118.717947 76 12981ft 199kts
12-May-17 13:39 47.368681 -118.641062 76 12981ft 199kts
12-May-17 13:40 47.386391 -118.564411 76 13003ft 198kts
12-May-17 13:41 47.404138 -118.487232 76 12989ft 199kts
12-May-17 13:42 47.421831 -118.410046 76 12989ft 199kts
12-May-17 13:43 47.438930 -118.335196 77 12991ft 199kts
12-May-17 13:44 47.456690 -118.257837 76 12515ft 192kts
12-May-17 13:45 47.473416 -118.185276 76 11269ft 185kts
12-May-17 13:46 47.489548 -118.114646 75 9756ft 181kts
12-May-17 13:47 47.505287 -118.045434 75 8053ft 176kts
12-May-17 13:48 47.520917 -117.975587 75 6508ft 187kts
12-May-17 13:49 47.537347 -117.902188 74 5211ft 187kts
12-May-17 13:50 47.552523 -117.833255 76 4992ft 176kts
12-May-17 13:51 47.567661 -117.764225 75 4992ft 176kts
12-May-17 13:52 47.582134 -117.698847 75 4992ft 165kts
12-May-17 13:53 47.596176 -117.632686 80 4994ft 169kts
12-May-17 13:54 47.600595 -117.562535 78 4659ft 183kts
12-May-17 13:55 47.631005 -117.503144 46 3313ft 153kts
12-May-17 13:56 47.656270 -117.479195 255 2727ft 80kts
12-May-17 13:57 47.642065 -117.501963 216 2712ft 92kts
12-May-17 13:58 47.625191 -117.527134 228 2348ft 51kts
12-May-17 13:59 47.623960 -117.531037 18 2352ft 10kts
12-May-17 14:00 47.624752 -117.530733 8 2351ft 1kts
12-May-17 14:01 47.625038 -117.533063 222 2352ft 8kts

Navigation Log

Ident Type
Flight plan parsing failed, navigation log unavailable